createdAt,value
2019-03-06T00:01:44.005Z,60638.16
2019-03-06T00:04:10.229Z,60629.63
2019-03-06T00:06:36.490Z,60631.46
2019-03-06T00:12:16.615Z,60623.51
2019-03-06T00:14:42.847Z,60611.59
2019-03-06T00:17:09.079Z,60604.52
2019-03-06T00:19:35.303Z,60605.60
2019-03-06T00:22:01.551Z,60607.77
2019-03-06T00:24:27.779Z,60604.52
2019-03-06T00:26:54.029Z,60609.14
2019-03-06T00:29:20.446Z,60610.67
2019-03-06T00:31:46.683Z,60616.18
2019-03-06T00:34:12.903Z,60620.82
2019-03-06T00:36:39.144Z,60622.59
2019-03-06T00:39:46.685Z,60624.88
2019-03-06T00:42:12.933Z,60631.82
2019-03-06T00:44:39.161Z,60633.57
2019-03-06T00:47:05.405Z,60639.59
2019-03-06T00:49:31.630Z,60642.81
2019-03-06T00:51:57.881Z,60637.27
2019-03-06T00:54:24.217Z,60640.14
2019-03-06T00:56:50.459Z,60643.89
2019-03-06T00:59:16.697Z,60630.57
2019-03-06T01:01:42.956Z,60625.45
2019-03-06T01:04:09.191Z,60612.46
2019-03-06T01:06:35.423Z,60607.71
2019-03-06T01:09:01.655Z,60607.36
2019-03-06T01:11:27.876Z,60605.23
2019-03-06T01:13:54.107Z,60608.96
2019-03-06T01:16:20.328Z,60612.31
2019-03-06T01:18:46.574Z,60614.06
2019-03-06T01:21:12.896Z,60621.87
2019-03-06T01:23:39.134Z,60619.37
2019-03-06T01:26:05.360Z,60642.27
2019-03-06T01:28:31.598Z,60640.64
2019-03-06T01:30:57.827Z,60641.17
2019-03-06T01:33:43.825Z,60643.14
2019-03-06T01:39:17.578Z,60646.53
2019-03-06T01:44:51.168Z,60644.03
2019-03-06T01:47:17.408Z,60639.42
2019-03-06T01:49:43.655Z,60652.41
2019-03-06T01:52:09.879Z,60664.42
2019-03-06T01:54:36.112Z,60675.45
2019-03-06T01:57:02.373Z,60676.46
2019-03-06T01:59:30.527Z,60698.81
2019-03-06T02:01:56.781Z,60703.26
2019-03-06T02:04:23.008Z,60706.12
2019-03-06T02:06:49.243Z,60705.41
2019-03-06T02:12:28.653Z,60704.09
2019-03-06T02:14:54.877Z,60712.46
2019-03-06T02:17:21.113Z,60709.07
2019-03-06T02:19:47.537Z,60705.01
2019-03-06T02:22:13.772Z,60706.48
2019-03-06T02:24:40.010Z,60700.39
2019-03-06T02:27:06.254Z,60711.57
2019-03-06T02:29:32.483Z,60721.15
2019-03-06T02:31:58.754Z,60728.59
2019-03-06T02:34:25.000Z,60724.53
2019-03-06T02:36:51.294Z,60725.39
2019-03-06T02:39:17.527Z,60723.61
2019-03-06T02:41:43.845Z,60739.16
2019-03-06T02:44:10.089Z,60731.41
2019-03-06T02:46:36.333Z,60727.87
2019-03-06T02:49:02.570Z,60763.32
2019-03-06T02:51:30.703Z,60772.40
2019-03-06T02:53:56.927Z,60785.95
2019-03-06T02:56:23.164Z,60783.45
2019-03-06T02:59:09.161Z,60783.05
2019-03-06T03:01:55.163Z,60807.56
2019-03-06T03:04:41.141Z,60822.37
2019-03-06T03:09:44.905Z,60787.50
2019-03-06T03:12:11.177Z,60779.18
2019-03-06T03:14:37.407Z,60769.78
2019-03-06T03:17:44.951Z,60762.14
2019-03-06T03:23:11.908Z,60750.38
2019-03-06T03:25:38.135Z,60764.80
2019-03-06T03:28:04.380Z,60761.75
2019-03-06T03:30:30.607Z,60756.62
2019-03-06T03:32:56.865Z,60766.40
2019-03-06T03:35:23.072Z,60767.27
2019-03-06T03:37:49.334Z,60767.27
2019-03-06T03:40:15.552Z,60779.00
2019-03-06T03:42:41.775Z,60784.92
2019-03-06T03:45:49.316Z,60768.34
2019-03-06T03:48:15.562Z,60776.35
2019-03-06T03:50:41.783Z,60787.21
2019-03-06T03:53:08.021Z,60791.09
2019-03-06T03:55:34.249Z,60805.47
2019-03-06T03:58:00.480Z,60807.95
2019-03-06T04:00:26.720Z,60829.04
2019-03-06T04:02:53.146Z,60827.70
2019-03-06T04:05:19.393Z,60834.42
2019-03-06T04:07:45.612Z,60821.60
2019-03-06T04:10:53.151Z,60805.62
2019-03-06T04:13:19.379Z,60799.42
2019-03-06T04:18:23.222Z,60776.85
2019-03-06T04:20:49.460Z,60776.93
2019-03-06T04:23:17.621Z,60768.38
2019-03-06T04:25:43.850Z,60763.01
2019-03-06T04:28:10.076Z,60752.02
2019-03-06T04:30:36.313Z,60739.77
2019-03-06T04:33:02.545Z,60732.52
2019-03-06T04:35:28.778Z,60723.96
2019-03-06T04:37:55.011Z,60723.27
2019-03-06T04:40:21.253Z,60716.38
2019-03-06T04:42:47.475Z,60716.95
2019-03-06T04:45:55.023Z,60713.75
2019-03-06T04:48:21.245Z,60722.35
2019-03-06T04:50:47.496Z,60728.94
2019-03-06T04:53:13.723Z,60746.12
2019-03-06T04:55:39.969Z,60769.10
2019-03-06T04:58:06.264Z,60766.02
2019-03-06T05:00:34.381Z,60768.75
2019-03-06T05:03:07.369Z,60755.55
2019-03-06T05:05:33.613Z,60758.95
2019-03-06T05:07:59.841Z,60770.54
2019-03-06T05:10:26.083Z,60787.54
2019-03-06T05:12:52.305Z,60797.87
2019-03-06T05:15:18.646Z,60794.10
2019-03-06T05:20:32.479Z,60789.65
2019-03-06T05:22:58.700Z,60798.77
2019-03-06T05:25:26.856Z,60815.67
2019-03-06T05:27:53.088Z,60848.57
2019-03-06T05:33:28.647Z,60839.70
2019-03-06T05:36:34.292Z,60847.45
2019-03-06T05:39:20.472Z,60834.18
2019-03-06T05:41:46.718Z,60837.43
2019-03-06T05:44:12.940Z,60824.50
2019-03-06T05:46:39.183Z,60807.38
2019-03-06T05:49:05.606Z,60788.76
2019-03-06T05:51:31.868Z,60768.53
2019-03-06T05:53:58.095Z,60748.45
2019-03-06T05:56:24.310Z,60728.55
2019-03-06T05:58:50.576Z,60719.36
2019-03-06T06:01:16.804Z,60699.35
2019-03-06T06:03:43.238Z,60677.91
2019-03-06T06:06:09.475Z,60656.60
2019-03-06T06:08:35.714Z,60640.10
2019-03-06T06:11:01.938Z,60625.74
2019-03-06T06:13:28.187Z,60623.69
2019-03-06T06:15:54.419Z,60618.65
2019-03-06T06:18:20.652Z,60625.23
2019-03-06T06:23:54.240Z,60624.49
2019-03-06T06:26:20.668Z,60633.26
2019-03-06T06:28:46.905Z,60635.01
2019-03-06T06:31:13.138Z,60620.86
2019-03-06T06:33:39.381Z,60607.50
2019-03-06T06:36:05.608Z,60613.53
2019-03-06T06:38:31.848Z,60630.57
2019-03-06T06:40:59.975Z,60653.48
2019-03-06T06:43:26.215Z,60664.42
2019-03-06T06:45:52.471Z,60678.82
2019-03-06T06:49:00.011Z,60682.80
2019-03-06T06:52:05.739Z,60696.87
2019-03-06T06:55:11.677Z,60707.13
2019-03-06T06:58:17.432Z,60726.25
2019-03-06T07:04:35.985Z,60773.47
2019-03-06T07:07:21.973Z,60808.28
2019-03-06T07:10:07.960Z,60856.11
2019-03-06T07:12:53.962Z,60899.57
2019-03-06T07:15:40.087Z,60913.64
2019-03-06T07:18:26.271Z,60945.48
2019-03-06T07:21:12.262Z,60990.12
2019-03-06T07:23:58.242Z,60997.22
2019-03-06T07:26:44.233Z,61029.45
2019-03-06T07:29:30.208Z,61069.41
2019-03-06T07:34:53.664Z,61178.96
2019-03-06T07:37:39.661Z,61210.36
2019-03-06T07:46:16.604Z,61355.45
2019-03-06T07:49:02.596Z,61378.03
2019-03-06T07:51:48.581Z,61409.66
2019-03-06T07:54:34.579Z,61447.40
2019-03-06T07:57:20.581Z,61471.08
2019-03-06T07:59:46.827Z,61519.66
2019-03-06T08:02:52.566Z,61525.80
2019-03-06T08:05:19.007Z,61555.68
2019-03-06T08:07:46.375Z,61594.36
2019-03-06T08:10:54.707Z,61627.27
2019-03-06T08:19:02.427Z,61695.88
2019-03-06T08:24:22.704Z,61747.57
2019-03-06T08:26:48.949Z,61770.52
2019-03-06T08:29:15.180Z,61798.18
2019-03-06T08:34:15.274Z,61847.49
2019-03-06T08:36:41.547Z,61871.32
2019-03-06T08:39:27.562Z,61895.58
2019-03-06T08:41:53.792Z,61922.43
2019-03-06T08:44:20.044Z,61901.48
2019-03-06T08:47:06.253Z,61901.18
2019-03-06T08:49:52.259Z,61902.35
2019-03-06T08:52:38.263Z,61912.84
2019-03-06T08:55:45.837Z,61919.86
2019-03-06T08:58:32.056Z,61906.35
2019-03-06T09:02:00.940Z,61918.79
2019-03-06T09:04:45.462Z,61959.11
2019-03-06T09:07:31.758Z,61958.71
2019-03-06T09:10:17.756Z,61968.79
2019-03-06T09:13:03.743Z,61986.93
2019-03-06T09:15:49.749Z,62016.96
2019-03-06T09:24:00.921Z,62065.64
2019-03-06T09:26:46.925Z,62055.53
2019-03-06T09:29:32.920Z,62045.46
2019-03-06T09:34:56.479Z,62034.29
2019-03-06T09:40:16.371Z,62067.66
2019-03-06T09:43:02.368Z,62060.98
2019-03-06T09:45:48.561Z,62049.96
2019-03-06T09:48:34.581Z,62031.61
2019-03-06T09:51:20.555Z,62044.03
2019-03-06T09:54:01.518Z,62067.75
2019-03-06T10:04:43.208Z,62074.35
2019-03-06T10:07:29.199Z,62110.31
2019-03-06T10:10:15.205Z,62108.49
2019-03-06T10:15:35.391Z,62169.43
2019-03-06T10:20:49.232Z,62137.27
2019-03-06T10:23:15.455Z,62166.73
2019-03-06T10:25:41.698Z,62168.70
2019-03-06T10:28:07.922Z,62152.29
2019-03-06T10:30:34.265Z,62180.80
2019-03-06T10:33:00.500Z,62151.94
2019-03-06T10:35:26.765Z,62173.23
2019-03-06T10:37:54.892Z,62189.41
2019-03-06T10:40:21.128Z,62245.75
2019-03-06T10:42:47.362Z,62247.52
2019-03-06T10:45:54.994Z,62251.02
2019-03-06T10:48:21.216Z,62285.83
2019-03-06T10:50:47.456Z,62316.15
2019-03-06T10:53:13.681Z,62337.70
2019-03-06T10:55:39.916Z,62299.17
2019-03-06T11:01:13.513Z,62350.89
2019-03-06T11:06:27.354Z,62378.42
2019-03-06T11:08:53.580Z,62378.55
2019-03-06T11:11:19.816Z,62375.91
2019-03-06T11:13:46.047Z,62366.20
2019-03-06T11:16:17.982Z,62380.23
2019-03-06T11:18:42.450Z,62392.16
2019-03-06T11:21:08.695Z,62404.50
2019-03-06T11:23:34.919Z,62392.04
2019-03-06T11:26:42.458Z,62435.95
2019-03-06T11:32:22.211Z,62500.26
2019-03-06T11:34:48.435Z,62524.95
2019-03-06T11:37:14.671Z,62498.90
2019-03-06T11:39:40.897Z,62473.39
2019-03-06T11:42:48.494Z,62444.77
2019-03-06T11:48:28.279Z,62492.11
2019-03-06T11:50:54.508Z,62486.09
2019-03-06T11:53:20.835Z,62408.29
2019-03-06T11:55:47.081Z,62396.16
2019-03-06T11:58:33.081Z,62377.94
2019-03-06T12:00:59.407Z,62356.25
2019-03-06T12:03:25.851Z,62340.20
2019-03-06T12:05:52.276Z,62332.20
2019-03-06T12:08:59.817Z,62299.56
2019-03-06T12:14:27.384Z,62292.04
2019-03-06T12:16:53.624Z,62275.39
2019-03-06T12:20:07.893Z,62269.37
2019-03-06T12:22:29.322Z,62276.74
2019-03-06T12:24:55.539Z,62276.48
2019-03-06T12:27:21.768Z,62259.63
2019-03-06T12:29:48.003Z,62243.05
2019-03-06T12:32:14.232Z,62232.77
2019-03-06T12:34:40.476Z,62236.41
2019-03-06T12:37:06.734Z,62241.22
2019-03-06T12:39:32.965Z,62225.38
2019-03-06T12:41:59.181Z,62228.91
2019-03-06T12:44:25.439Z,62241.42
2019-03-06T12:49:30.803Z,62250.77
2019-03-06T12:51:57.029Z,62251.70
2019-03-06T12:54:23.269Z,62266.93
2019-03-06T12:56:49.493Z,62205.50
2019-03-06T12:59:15.745Z,62187.97
2019-03-06T13:01:42.169Z,62179.52
2019-03-06T13:04:08.406Z,62154.99
2019-03-06T13:06:34.635Z,62144.23
2019-03-06T13:09:42.172Z,62122.00
2019-03-06T13:12:20.243Z,62118.08
2019-03-06T13:14:46.486Z,62109.36
2019-03-06T13:17:12.705Z,62103.13
2019-03-06T13:19:38.968Z,62085.78
2019-03-06T13:22:11.081Z,62073.36
2019-03-06T13:24:33.336Z,62067.40
2019-03-06T13:26:59.655Z,62075.24
2019-03-06T13:29:26.002Z,62067.68
2019-03-06T13:31:52.250Z,62056.07
2019-03-06T13:37:06.092Z,62047.29
2019-03-06T13:39:34.257Z,62055.63
2019-03-06T13:42:00.491Z,62026.70
2019-03-06T13:44:26.719Z,62017.70
2019-03-06T13:46:52.959Z,62027.81
2019-03-06T13:49:19.179Z,62005.29
2019-03-06T13:51:45.427Z,62013.65
2019-03-06T13:54:11.651Z,62005.49
2019-03-06T13:56:38.555Z,62000.97
2019-03-06T13:59:06.055Z,62007.17
2019-03-06T14:01:32.306Z,61998.41
2019-03-06T14:03:58.654Z,61994.01
2019-03-06T14:09:18.589Z,61974.78
2019-03-06T14:11:45.047Z,61965.26
2019-03-06T14:14:11.286Z,61957.64
2019-03-06T14:16:37.549Z,61953.80
2019-03-06T14:22:11.151Z,61962.21
2019-03-06T14:24:37.386Z,61946.46
2019-03-06T14:27:44.922Z,61943.01
2019-03-06T14:30:31.605Z,61954.66
2019-03-06T14:32:57.856Z,61936.27
2019-03-06T14:38:38.223Z,61931.68
2019-03-06T14:41:04.542Z,61934.95
2019-03-06T14:43:30.781Z,61916.97
2019-03-06T14:45:57.011Z,61904.57
2019-03-06T14:48:25.157Z,61901.59
2019-03-06T14:50:51.392Z,61896.77
2019-03-06T14:53:17.629Z,61908.29
2019-03-06T14:55:43.859Z,61919.47
2019-03-06T15:04:05.453Z,61917.57
2019-03-06T15:06:31.692Z,61898.84
2019-03-06T15:08:58.127Z,61877.54
2019-03-06T15:11:32.778Z,61876.05
2019-03-06T15:13:52.514Z,61874.57
2019-03-06T15:16:18.732Z,61867.70
2019-03-06T15:18:44.983Z,61867.49
2019-03-06T15:21:11.204Z,61865.34
2019-03-06T15:24:18.755Z,61862.51
2019-03-06T15:26:44.986Z,61871.84
2019-03-06T15:29:52.532Z,61856.86
2019-03-06T15:32:18.771Z,61853.82
2019-03-06T15:34:45.016Z,61854.96
2019-03-06T15:37:11.254Z,61846.21
2019-03-06T15:39:45.674Z,61835.08
2019-03-06T15:48:19.850Z,61798.80
2019-03-06T15:50:46.078Z,61760.62
2019-03-06T15:53:53.627Z,61748.30
2019-03-06T15:56:19.968Z,61729.94
2019-03-06T15:58:46.240Z,61724.23
2019-03-06T16:01:12.484Z,61696.41
2019-03-06T16:03:38.851Z,61682.77
2019-03-06T16:08:52.696Z,61676.70
2019-03-06T16:11:19.808Z,61668.35
2019-03-06T16:13:47.128Z,61669.76
2019-03-06T16:16:13.367Z,61663.61
2019-03-06T16:18:39.720Z,61664.34
2019-03-06T16:21:47.276Z,61658.41
2019-03-06T16:24:13.524Z,61648.73
2019-03-06T16:26:39.762Z,61649.81
2019-03-06T16:29:06.000Z,61655.87
2019-03-06T16:31:32.249Z,61635.96
2019-03-06T16:33:58.495Z,61631.57
2019-03-06T16:36:24.844Z,61622.12
2019-03-06T16:38:51.084Z,61614.27
2019-03-06T16:41:17.329Z,61615.92
2019-03-06T16:43:43.564Z,61617.54
2019-03-06T16:46:10.036Z,61625.31
2019-03-06T16:48:36.273Z,61617.30
2019-03-06T16:53:56.864Z,61605.75
2019-03-06T16:56:23.114Z,61590.95
2019-03-06T16:58:49.347Z,61596.38
2019-03-06T17:01:15.703Z,61612.55
2019-03-06T17:03:41.938Z,61623.61
2019-03-06T17:06:08.200Z,61635.69
2019-03-06T17:08:34.435Z,61635.83
2019-03-06T17:11:00.700Z,61649.81
2019-03-06T17:13:26.948Z,61650.82
2019-03-06T17:15:55.103Z,61650.51
2019-03-06T17:18:21.336Z,61627.02
2019-03-06T17:20:47.569Z,61623.40
2019-03-06T17:23:13.833Z,61613.91
2019-03-06T17:28:34.205Z,61588.52
2019-03-06T17:31:00.553Z,61587.27
2019-03-06T17:33:26.786Z,61568.15
2019-03-06T17:35:53.021Z,61551.78
2019-03-06T17:38:19.576Z,61548.56
2019-03-06T17:40:47.429Z,61545.05
2019-03-06T17:43:13.683Z,61546.42
2019-03-06T17:48:55.797Z,61543.20
2019-03-06T17:51:22.235Z,61532.10
2019-03-06T17:53:48.485Z,61522.98
2019-03-06T17:56:14.715Z,61517.64
2019-03-06T17:58:40.970Z,61493.43
2019-03-06T18:06:28.856Z,61461.07
2019-03-06T18:08:55.104Z,61439.70
2019-03-06T18:11:21.438Z,61432.39
2019-03-06T18:13:47.684Z,61428.00
2019-03-06T18:16:13.922Z,61412.00
2019-03-06T18:18:40.169Z,61414.23
2019-03-06T18:21:06.437Z,61402.05
2019-03-06T18:23:34.318Z,61385.19
2019-03-06T18:26:00.819Z,61383.69
2019-03-06T18:28:27.069Z,61380.12
2019-03-06T18:30:53.308Z,61366.13
2019-03-06T18:33:19.553Z,61355.17
2019-03-06T18:35:45.784Z,61345.67
2019-03-06T18:38:12.041Z,61348.84
2019-03-06T18:40:38.276Z,61334.60
2019-03-06T18:43:45.841Z,61342.83
2019-03-06T18:46:12.085Z,61323.20
2019-03-06T18:48:38.336Z,61313.74
2019-03-06T18:51:04.662Z,61305.91
2019-03-06T18:53:30.905Z,61303.07
2019-03-06T18:55:57.138Z,61289.78
2019-03-06T18:58:23.431Z,61277.61
2019-03-06T19:00:49.661Z,61277.65
2019-03-06T19:03:57.201Z,61269.24
2019-03-06T19:06:23.440Z,61263.00
2019-03-06T19:08:49.686Z,61259.25
2019-03-06T19:11:17.204Z,61255.69
2019-03-06T19:13:44.108Z,61247.81
2019-03-06T19:16:10.332Z,61246.40
2019-03-06T19:18:36.671Z,61245.18
2019-03-06T19:21:02.909Z,61233.54
2019-03-06T19:23:29.144Z,61226.85
2019-03-06T19:25:55.392Z,61217.95
2019-03-06T19:28:21.620Z,61197.86
2019-03-06T19:30:47.856Z,61187.92
2019-03-06T19:33:14.080Z,61172.89
2019-03-06T19:35:40.329Z,61161.46
2019-03-06T19:38:06.773Z,61144.20
2019-03-06T19:40:33.548Z,61166.10
2019-03-06T19:43:01.152Z,61149.36
2019-03-06T19:45:27.397Z,61141.33
2019-03-06T19:47:53.620Z,61146.42
2019-03-06T19:50:39.611Z,61130.67
2019-03-06T19:53:06.152Z,61119.39
2019-03-06T19:55:32.392Z,61116.23
2019-03-06T19:58:39.941Z,61108.33
2019-03-06T20:01:06.377Z,61103.76
2019-03-06T20:03:32.609Z,61089.86
2019-03-06T20:05:58.849Z,61081.26
2019-03-06T20:08:25.077Z,61082.19
2019-03-06T20:10:51.315Z,61085.37
2019-03-06T20:13:17.543Z,61088.97
2019-03-06T20:15:43.883Z,61083.66
2019-03-06T20:21:17.472Z,61059.07
2019-03-06T20:23:43.711Z,61049.07
2019-03-06T20:26:13.981Z,61040.51
2019-03-06T20:28:38.092Z,61036.77
2019-03-06T20:31:04.331Z,61033.38
2019-03-06T20:33:30.558Z,61034.50
2019-03-06T20:35:56.814Z,61044.41
2019-03-06T20:38:23.044Z,61029.14
2019-03-06T20:40:49.281Z,61026.08
2019-03-06T20:43:15.522Z,61017.51
2019-03-06T20:45:41.748Z,61020.98
2019-03-06T20:48:07.991Z,61019.54
2019-03-06T20:50:36.145Z,61024.00
2019-03-06T20:53:02.383Z,61019.14
2019-03-06T20:55:28.620Z,61027.74
2019-03-06T20:57:55.066Z,61026.12
2019-03-06T21:03:22.360Z,61012.73
2019-03-06T21:05:48.590Z,61009.00
2019-03-06T21:08:15.035Z,60997.02
2019-03-06T21:10:41.399Z,60990.50
2019-03-06T21:13:07.644Z,60984.82
2019-03-06T21:15:33.888Z,60984.47
2019-03-06T21:18:00.135Z,60977.12
2019-03-06T21:20:26.381Z,60976.77
2019-03-06T21:22:52.628Z,60974.29
2019-03-06T21:26:00.152Z,60967.17
2019-03-06T21:28:26.399Z,60961.38
2019-03-06T21:30:52.628Z,60945.92
2019-03-06T21:33:18.868Z,60939.48
2019-03-06T21:35:45.118Z,60932.69
2019-03-06T21:38:13.412Z,60931.14
2019-03-06T21:40:39.644Z,60914.25
2019-03-06T21:43:05.883Z,60913.49
2019-03-06T21:45:33.843Z,60904.76
2019-03-06T21:48:00.262Z,60904.41
2019-03-06T21:50:26.964Z,60910.78
2019-03-06T21:52:53.332Z,60898.44
2019-03-06T21:55:19.555Z,60888.25
2019-03-06T21:57:47.773Z,60877.03
2019-03-06T22:00:55.506Z,60871.40
2019-03-06T22:03:21.749Z,60858.94
2019-03-06T22:05:49.894Z,60851.08
2019-03-06T22:08:16.134Z,60851.43
2019-03-06T22:10:42.361Z,60859.12
2019-03-06T22:13:08.592Z,60852.84
2019-03-06T22:15:35.022Z,60850.03
2019-03-06T22:18:01.246Z,60842.36
2019-03-06T22:20:27.492Z,60839.91
2019-03-06T22:22:53.728Z,60833.80
2019-03-06T22:25:19.969Z,60850.86
2019-03-06T22:27:46.181Z,60832.05
2019-03-06T22:30:32.173Z,60833.16
2019-03-06T22:32:59.640Z,60826.75
2019-03-06T22:35:26.547Z,60822.34
2019-03-06T22:37:52.775Z,60815.71
2019-03-06T22:41:00.318Z,60786.11
2019-03-06T22:43:26.544Z,60785.45
2019-03-06T22:45:52.781Z,60796.40
2019-03-06T22:48:19.008Z,60779.36
2019-03-06T22:50:45.249Z,60772.44
2019-03-06T22:53:11.474Z,60761.93
2019-03-06T22:55:37.714Z,60757.19
2019-03-06T22:58:03.949Z,60752.43
2019-03-06T23:01:11.512Z,60743.16
2019-03-06T23:03:37.739Z,60742.63
2019-03-06T23:06:04.091Z,60745.29
2019-03-06T23:08:30.316Z,60749.20
2019-03-06T23:10:56.568Z,60748.33
2019-03-06T23:13:22.997Z,60743.16
2019-03-06T23:15:49.232Z,60740.87
2019-03-06T23:18:15.464Z,60738.22
2019-03-06T23:20:41.702Z,60739.77
2019-03-06T23:23:07.931Z,60746.69
2019-03-06T23:25:34.179Z,60744.53
2019-03-06T23:28:00.390Z,60744.42
2019-03-06T23:30:28.532Z,60740.16
2019-03-06T23:32:54.770Z,60733.03
2019-03-06T23:35:21.005Z,60722.59
2019-03-06T23:37:47.236Z,60708.39
2019-03-06T23:40:13.771Z,60717.16
2019-03-06T23:42:40.046Z,60714.09
2019-03-06T23:45:47.585Z,60710.14
2019-03-06T23:48:13.823Z,60711.93
2019-03-06T23:50:40.066Z,60714.44
2019-03-06T23:55:53.899Z,60705.73
2019-03-06T23:58:20.132Z,60717.91
